Terminal Aerodrome Forecast
Issued by NWS Twin Cities, MN

Home | Current Version | Previous Version | Text Only | Print | Product List | Glossary On
Versions: 1 2 3 4 5 6 7 8 9 10 11 12
959
FTUS43 KMPX 141739
TAFSTC
TAF
KSTC 141739Z 1418/1518 18012KT 4SM -SHSN OVC025
     FM141900 21012KT 1 1/2SM -SN BR OVC010
      TEMPO 1420/1424 3/4SM -SN BR VV006
     FM150200 32015G21KT P6SM OVC025
     FM151000 32014G21KT P6SM OVC015=

USA.gov is the U.S. government's official web portal to all federal, state and local government web resources and services.